createdAt,value
2023-02-19T00:01:42.808Z,6.13
2023-02-19T00:04:12.580Z,5.88
2023-02-19T00:06:39.405Z,6.32
2023-02-19T00:09:06.327Z,6.32
2023-02-19T00:11:34.668Z,6.72
2023-02-19T00:14:02.500Z,6.70
2023-02-19T00:16:31.126Z,6.05
2023-02-19T00:18:59.012Z,6.70
2023-02-19T00:21:26.256Z,6.60
2023-02-19T00:24:01.617Z,6.40
2023-02-19T00:26:28.672Z,6.25
2023-02-19T00:28:56.417Z,5.90
2023-02-19T00:31:25.380Z,6.88
2023-02-19T00:33:56.925Z,6.57
2023-02-19T00:36:24.141Z,6.88
2023-02-19T00:38:51.565Z,6.30
2023-02-19T00:41:19.591Z,6.85
2023-02-19T00:43:53.272Z,6.40
2023-02-19T00:46:24.530Z,6.78
2023-02-19T00:48:51.142Z,6.68
2023-02-19T00:51:17.655Z,6.93
2023-02-19T00:53:44.655Z,6.78
2023-02-19T00:56:11.935Z,6.78
2023-02-19T00:58:38.866Z,7.00
2023-02-19T01:01:06.195Z,6.65
2023-02-19T01:03:34.067Z,6.63
2023-02-19T01:06:01.296Z,5.72
2023-02-19T01:08:28.216Z,6.55
2023-02-19T01:10:54.824Z,6.70
2023-02-19T01:13:21.348Z,7.03
2023-02-19T01:15:47.927Z,6.95
2023-02-19T01:18:14.666Z,6.60
2023-02-19T01:20:42.986Z,6.25
2023-02-19T01:23:11.471Z,7.65
2023-02-19T01:25:39.042Z,6.80
2023-02-19T01:28:05.972Z,6.78
2023-02-19T01:30:37.944Z,7.60
2023-02-19T01:33:06.171Z,7.57
2023-02-19T01:35:32.698Z,7.57
2023-02-19T01:37:59.391Z,7.28
2023-02-19T01:40:26.656Z,6.80
2023-02-19T01:42:53.147Z,7.10
2023-02-19T01:45:39.621Z,7.25
2023-02-19T01:48:14.036Z,7.13
2023-02-19T01:50:44.540Z,7.50
2023-02-19T01:53:13.251Z,8.30
2023-02-19T01:55:40.585Z,7.65
2023-02-19T01:58:08.567Z,9.00
2023-02-19T02:00:35.094Z,8.25
2023-02-19T02:03:01.710Z,8.30
2023-02-19T02:05:31.330Z,8.68
2023-02-19T02:07:58.591Z,8.95
2023-02-19T02:10:25.107Z,8.43
2023-02-19T02:12:53.329Z,8.38
2023-02-19T02:15:19.880Z,9.43
2023-02-19T02:18:08.395Z,8.43
2023-02-19T02:20:37.575Z,7.97
2023-02-19T02:23:24.013Z,7.95
2023-02-19T02:26:22.689Z,8.05
2023-02-19T02:29:10.469Z,8.77
2023-02-19T02:31:44.364Z,8.88
2023-02-19T02:34:15.382Z,8.40
2023-02-19T02:36:44.744Z,8.50
2023-02-19T02:39:14.443Z,9.02
2023-02-19T02:41:43.395Z,9.13
2023-02-19T02:44:09.955Z,9.20
2023-02-19T02:46:39.348Z,8.98
2023-02-19T02:49:10.140Z,9.32
2023-02-19T02:51:39.022Z,9.50
2023-02-19T02:54:10.048Z,8.82
2023-02-19T02:56:36.931Z,9.15
2023-02-19T02:59:06.009Z,9.48
2023-02-19T03:01:41.624Z,10.00
2023-02-19T03:04:15.860Z,8.07
2023-02-19T03:06:42.922Z,8.57
2023-02-19T03:09:12.549Z,8.20
2023-02-19T03:11:41.767Z,9.25
2023-02-19T03:14:15.767Z,10.38
2023-02-19T03:16:43.412Z,10.38
2023-02-19T03:19:13.047Z,8.55
2023-02-19T03:21:41.380Z,8.98
2023-02-19T03:24:10.347Z,9.65
2023-02-19T03:26:38.676Z,9.55
2023-02-19T03:29:06.215Z,9.70
2023-02-19T03:31:33.095Z,10.32
2023-02-19T03:34:05.920Z,11.00
2023-02-19T03:36:38.980Z,11.20
2023-02-19T03:39:07.658Z,11.70
2023-02-19T03:41:58.772Z,11.75
2023-02-19T03:44:30.431Z,11.68
2023-02-19T03:47:02.467Z,10.15
2023-02-19T03:49:47.219Z,10.43
2023-02-19T03:52:43.214Z,10.48
2023-02-19T03:55:42.000Z,10.45
2023-02-19T03:58:32.318Z,11.27
2023-02-19T04:01:06.011Z,10.60
2023-02-19T04:03:37.626Z,9.80
2023-02-19T04:06:17.706Z,9.82
2023-02-19T04:08:48.606Z,9.75
2023-02-19T04:11:16.599Z,10.38
2023-02-19T04:14:07.817Z,9.88
2023-02-19T04:16:38.200Z,10.38
2023-02-19T04:19:16.805Z,9.82
2023-02-19T04:21:45.135Z,9.55
2023-02-19T04:24:15.181Z,9.85
2023-02-19T04:26:42.422Z,9.18
2023-02-19T04:29:08.986Z,8.38
2023-02-19T04:31:35.881Z,8.02
2023-02-19T04:34:03.098Z,7.38
2023-02-19T04:36:31.578Z,6.90
2023-02-19T04:38:58.214Z,7.10
2023-02-19T04:41:24.829Z,5.97
2023-02-19T04:43:51.597Z,6.15
2023-02-19T04:46:18.234Z,6.70
2023-02-19T04:48:44.889Z,6.05
2023-02-19T04:51:11.946Z,6.05
2023-02-19T04:53:38.558Z,6.20
2023-02-19T04:56:13.771Z,5.90
2023-02-19T04:58:41.414Z,6.30
2023-02-19T05:01:08.984Z,5.65
2023-02-19T05:03:37.125Z,5.60
2023-02-19T05:06:05.035Z,5.20
2023-02-19T05:08:31.661Z,5.25
2023-02-19T05:11:02.760Z,5.38
2023-02-19T05:13:29.746Z,5.57
2023-02-19T05:16:04.878Z,4.93
2023-02-19T05:18:32.477Z,5.10
2023-02-19T05:20:59.379Z,5.22
2023-02-19T05:23:26.813Z,5.20
2023-02-19T05:25:53.715Z,5.53
2023-02-19T05:28:20.713Z,6.03
2023-02-19T05:30:49.291Z,6.28
2023-02-19T05:33:17.726Z,5.97
2023-02-19T05:35:46.145Z,6.55
2023-02-19T05:38:12.772Z,6.45
2023-02-19T05:40:39.731Z,6.47
2023-02-19T05:43:07.668Z,6.30
2023-02-19T05:45:36.529Z,6.10
2023-02-19T05:50:33.209Z,6.82
2023-02-19T05:53:00.840Z,7.00
2023-02-19T05:55:28.324Z,6.00
2023-02-19T05:57:55.362Z,5.75
2023-02-19T06:00:22.055Z,6.68
2023-02-19T06:02:48.616Z,5.70
2023-02-19T06:05:15.177Z,5.82
2023-02-19T06:07:41.744Z,5.57
2023-02-19T06:10:09.976Z,6.10
2023-02-19T06:12:36.950Z,6.53
2023-02-19T06:15:04.244Z,6.40
2023-02-19T06:17:30.869Z,6.18
2023-02-19T06:19:57.339Z,6.20
2023-02-19T06:22:23.819Z,6.63
2023-02-19T06:24:50.309Z,6.57
2023-02-19T06:27:16.816Z,7.47
2023-02-19T06:29:46.323Z,6.85
2023-02-19T06:32:12.817Z,6.95
2023-02-19T06:34:39.762Z,6.28
2023-02-19T06:37:06.262Z,6.40
2023-02-19T06:39:32.774Z,6.82
2023-02-19T06:41:59.375Z,6.50
2023-02-19T06:44:28.448Z,7.28
2023-02-19T06:46:55.685Z,6.30
2023-02-19T06:49:22.690Z,6.85
2023-02-19T06:51:49.195Z,6.93
2023-02-19T06:54:15.661Z,6.47
2023-02-19T06:56:44.902Z,6.22
2023-02-19T06:59:15.108Z,5.45
2023-02-19T07:01:41.613Z,6.10
2023-02-19T07:04:08.167Z,5.85
2023-02-19T07:06:37.792Z,5.90
2023-02-19T07:09:05.584Z,6.28
2023-02-19T07:11:33.611Z,5.57
2023-02-19T07:14:02.494Z,5.88
2023-02-19T07:16:29.285Z,5.82
2023-02-19T07:18:57.542Z,5.75
2023-02-19T07:21:24.396Z,5.20
2023-02-19T07:23:50.921Z,5.50
2023-02-19T07:26:18.969Z,5.80
2023-02-19T07:28:49.575Z,5.60
2023-02-19T07:31:17.152Z,5.65
2023-02-19T07:33:44.366Z,6.13
2023-02-19T07:36:11.188Z,5.38
2023-02-19T07:38:37.861Z,6.20
2023-02-19T07:41:07.141Z,5.75
2023-02-19T07:43:35.686Z,5.32
2023-02-19T07:46:10.837Z,5.00
2023-02-19T07:48:38.024Z,4.90
2023-02-19T07:51:06.993Z,5.30
2023-02-19T07:53:34.762Z,5.18
2023-02-19T07:56:06.459Z,5.22
2023-02-19T07:58:33.597Z,4.78
2023-02-19T08:01:15.928Z,5.18
2023-02-19T08:03:43.385Z,4.63
2023-02-19T08:06:12.369Z,4.95
2023-02-19T08:08:39.984Z,5.03
2023-02-19T08:11:06.859Z,4.78
2023-02-19T08:13:33.323Z,5.00
2023-02-19T08:16:15.682Z,4.57
2023-02-19T08:18:46.050Z,4.22
2023-02-19T08:21:12.698Z,4.63
2023-02-19T08:23:39.888Z,4.30
2023-02-19T08:26:06.784Z,4.45
2023-02-19T08:28:33.325Z,3.80
2023-02-19T08:31:02.122Z,4.07
2023-02-19T08:33:30.555Z,4.38
2023-02-19T08:35:57.263Z,3.85
2023-02-19T08:38:23.739Z,4.43
2023-02-19T08:40:50.277Z,4.32
2023-02-19T08:43:17.319Z,4.75
2023-02-19T08:45:45.146Z,4.68
2023-02-19T08:48:13.029Z,5.03
2023-02-19T08:50:39.943Z,4.40
2023-02-19T08:53:06.798Z,4.30
2023-02-19T08:55:33.701Z,4.63
2023-02-19T08:58:00.828Z,4.35
2023-02-19T09:00:28.001Z,4.20
2023-02-19T09:02:57.440Z,4.30
2023-02-19T09:05:23.925Z,4.38
2023-02-19T09:07:50.397Z,4.20
2023-02-19T09:10:16.942Z,4.90
2023-02-19T09:12:44.435Z,4.30
2023-02-19T09:15:14.322Z,4.20
2023-02-19T09:17:40.816Z,3.92
2023-02-19T09:20:13.841Z,3.70
2023-02-19T09:22:40.324Z,3.90
2023-02-19T09:25:07.339Z,3.67
2023-02-19T09:27:33.929Z,3.58
2023-02-19T09:30:00.426Z,3.90
2023-02-19T09:32:35.963Z,3.80
2023-02-19T09:35:02.449Z,4.40
2023-02-19T09:37:29.121Z,3.65
2023-02-19T09:39:55.742Z,4.10
2023-02-19T09:42:28.614Z,3.60
2023-02-19T09:44:57.438Z,3.58
2023-02-19T09:47:26.635Z,3.50
2023-02-19T09:49:58.706Z,3.50
2023-02-19T09:52:32.975Z,3.22
2023-02-19T09:55:09.380Z,3.45
2023-02-19T09:57:36.429Z,3.70
2023-02-19T10:00:11.794Z,3.70
2023-02-19T10:02:38.631Z,3.38
2023-02-19T10:05:15.454Z,3.40
2023-02-19T10:07:44.832Z,3.78
2023-02-19T10:10:16.117Z,4.30
2023-02-19T10:12:48.705Z,4.15
2023-02-19T10:15:23.091Z,5.00
2023-02-19T10:17:50.803Z,4.85
2023-02-19T10:20:20.090Z,5.47
2023-02-19T10:22:46.854Z,4.60
2023-02-19T10:25:15.495Z,10.25
2023-02-19T10:27:43.026Z,6.63
2023-02-19T10:30:24.379Z,5.15
2023-02-19T10:33:10.361Z,5.60
2023-02-19T10:35:51.443Z,5.30
2023-02-19T10:38:19.087Z,7.47
2023-02-19T10:40:46.015Z,5.28
2023-02-19T10:43:25.009Z,5.53
2023-02-19T10:45:53.214Z,14.25
2023-02-19T10:48:32.221Z,5.40
2023-02-19T10:51:02.777Z,5.45
2023-02-19T10:54:04.586Z,5.35
2023-02-19T10:56:31.286Z,7.43
2023-02-19T10:59:20.269Z,18.33
2023-02-19T11:02:03.921Z,11.88
2023-02-19T11:04:32.675Z,9.25
2023-02-19T11:07:13.158Z,6.30
2023-02-19T11:09:42.018Z,6.18
2023-02-19T11:12:09.778Z,4.82
2023-02-19T11:14:36.500Z,4.05
2023-02-19T11:17:04.268Z,3.75
2023-02-19T11:19:33.918Z,3.88
2023-02-19T11:22:01.257Z,3.92
2023-02-19T11:24:33.916Z,3.80
2023-02-19T11:27:07.776Z,3.50
2023-02-19T11:29:34.499Z,4.20
2023-02-19T11:32:30.010Z,3.63
2023-02-19T11:35:26.280Z,4.00
2023-02-19T11:38:00.599Z,12.80
2023-02-19T11:40:56.273Z,22.95
2023-02-19T11:43:35.160Z,14.10
2023-02-19T11:46:16.763Z,6.82
2023-02-19T11:49:10.226Z,25.65
2023-02-19T11:51:52.963Z,9.80
2023-02-19T11:54:32.334Z,59.63
2023-02-19T11:57:09.915Z,28.60
2023-02-19T11:59:44.082Z,4.25
2023-02-19T12:02:38.270Z,10.15
2023-02-19T12:05:08.470Z,4.47
2023-02-19T12:07:57.398Z,4.40
2023-02-19T12:11:08.438Z,4.47
2023-02-19T12:13:53.106Z,4.75
2023-02-19T12:16:34.375Z,4.15
2023-02-19T12:19:13.041Z,4.07
2023-02-19T12:22:04.899Z,4.60
2023-02-19T12:24:50.439Z,4.07
2023-02-19T12:27:33.995Z,4.55
2023-02-19T12:30:19.297Z,4.80
2023-02-19T12:33:00.883Z,4.43
2023-02-19T12:35:52.276Z,4.05
2023-02-19T12:38:31.822Z,4.13
2023-02-19T12:41:18.613Z,4.30
2023-02-19T12:43:55.528Z,4.35
2023-02-19T12:46:31.386Z,4.25
2023-02-19T12:49:06.659Z,4.72
2023-02-19T12:51:38.590Z,3.92
2023-02-19T12:54:14.983Z,3.40
2023-02-19T12:56:46.982Z,3.58
2023-02-19T12:59:45.966Z,3.42
2023-02-19T13:02:21.208Z,3.22
2023-02-19T13:04:56.644Z,3.50
2023-02-19T13:07:31.735Z,2.97
2023-02-19T13:10:05.923Z,3.23
2023-02-19T13:12:38.641Z,2.60
2023-02-19T13:15:15.237Z,3.13
2023-02-19T13:17:51.579Z,3.10
2023-02-19T13:20:33.092Z,3.50
2023-02-19T13:23:18.911Z,3.17
2023-02-19T13:25:52.068Z,3.60
2023-02-19T13:28:32.858Z,3.40
2023-02-19T13:31:05.369Z,3.60
2023-02-19T13:33:56.502Z,3.45
2023-02-19T13:36:26.321Z,4.60
2023-02-19T13:38:53.187Z,4.05
2023-02-19T13:41:26.885Z,3.70
2023-02-19T13:43:55.389Z,3.83
2023-02-19T13:46:22.005Z,2.90
2023-02-19T13:48:48.835Z,2.93
2023-02-19T13:51:18.402Z,3.57
2023-02-19T13:53:44.811Z,11.48
2023-02-19T13:56:29.994Z,3.70
2023-02-19T13:59:13.534Z,2.20
2023-02-19T14:01:58.461Z,2.13
2023-02-19T14:04:46.075Z,4.67
2023-02-19T14:07:12.938Z,5.10
2023-02-19T14:09:39.397Z,2.40
2023-02-19T14:12:08.901Z,4.80
2023-02-19T14:14:36.412Z,12.40
2023-02-19T14:17:08.951Z,4.70
2023-02-19T14:19:41.394Z,3.07
2023-02-19T14:22:44.952Z,3.30
2023-02-19T14:25:38.215Z,3.00
2023-02-19T14:28:10.909Z,2.70
2023-02-19T14:30:44.432Z,5.10
2023-02-19T14:33:11.504Z,3.33
2023-02-19T14:35:41.588Z,3.00
2023-02-19T14:40:39.862Z,2.00
2023-02-19T14:43:06.593Z,2.22
2023-02-19T14:45:40.877Z,2.10
2023-02-19T14:48:15.349Z,2.50
2023-02-19T14:50:42.015Z,2.73
2023-02-19T14:53:08.949Z,2.23
2023-02-19T14:55:37.733Z,2.50
2023-02-19T14:58:15.855Z,2.60
2023-02-19T15:00:42.792Z,2.97
2023-02-19T15:03:36.688Z,2.73
2023-02-19T15:06:11.473Z,2.93
2023-02-19T15:08:47.001Z,2.83
2023-02-19T15:11:24.701Z,2.70
2023-02-19T15:14:06.164Z,2.80
2023-02-19T15:16:35.062Z,2.73
2023-02-19T15:19:05.737Z,2.80
2023-02-19T15:21:33.141Z,3.00
2023-02-19T15:24:02.214Z,2.80
2023-02-19T15:26:36.901Z,2.78
2023-02-19T15:29:10.493Z,3.00
2023-02-19T15:31:37.405Z,2.50
2023-02-19T15:34:04.051Z,5.53
2023-02-19T15:36:36.108Z,3.40
2023-02-19T15:39:05.294Z,3.03
2023-02-19T15:42:01.390Z,5.17
2023-02-19T15:44:58.138Z,4.83
2023-02-19T15:47:36.335Z,1.90
2023-02-19T15:50:17.091Z,0.60
2023-02-19T15:52:55.012Z,0.40
2023-02-19T15:55:29.264Z,0.60
2023-02-19T15:58:14.906Z,0.57
2023-02-19T16:00:52.121Z,0.60
2023-02-19T16:03:21.109Z,0.57
2023-02-19T16:06:08.455Z,0.50
2023-02-19T16:08:36.851Z,0.60
2023-02-19T16:11:30.386Z,0.70
2023-02-19T16:14:16.620Z,0.60
2023-02-19T16:16:43.940Z,0.60
2023-02-19T16:19:10.779Z,0.57
2023-02-19T16:21:37.545Z,0.52
2023-02-19T16:24:11.537Z,0.65
2023-02-19T16:26:42.062Z,0.70
2023-02-19T16:29:24.869Z,0.50
2023-02-19T16:32:02.406Z,0.43
2023-02-19T16:34:43.470Z,0.60
2023-02-19T16:37:34.963Z,0.57
2023-02-19T16:40:07.553Z,0.60
2023-02-19T16:42:49.314Z,0.70
2023-02-19T16:45:16.730Z,0.57
2023-02-19T16:47:44.114Z,0.63
2023-02-19T16:50:26.378Z,0.50
2023-02-19T16:52:58.308Z,0.55
2023-02-19T16:55:25.468Z,0.50
2023-02-19T16:57:52.141Z,0.60
2023-02-19T17:00:19.526Z,0.65
2023-02-19T17:02:47.624Z,0.43
2023-02-19T17:05:14.662Z,0.60
2023-02-19T17:07:41.218Z,0.70
2023-02-19T17:10:08.112Z,0.60
2023-02-19T17:12:34.655Z,0.60
2023-02-19T17:15:01.173Z,0.60
2023-02-19T17:17:27.638Z,0.60
2023-02-19T17:19:54.158Z,1.15
2023-02-19T17:22:20.642Z,0.70
2023-02-19T17:24:47.200Z,0.90
2023-02-19T17:27:13.898Z,0.80
2023-02-19T17:29:40.484Z,0.80
2023-02-19T17:32:07.366Z,0.77
2023-02-19T17:34:33.949Z,1.98
2023-02-19T17:37:00.453Z,1.23
2023-02-19T17:39:27.088Z,1.70
2023-02-19T17:41:53.641Z,1.00
2023-02-19T17:44:20.474Z,0.80
2023-02-19T17:46:54.862Z,1.10
2023-02-19T17:49:21.443Z,0.80
2023-02-19T17:51:47.902Z,0.95
2023-02-19T17:54:14.363Z,0.90
2023-02-19T17:56:40.907Z,1.23
2023-02-19T17:59:07.578Z,1.85
2023-02-19T18:01:34.094Z,1.30
2023-02-19T18:04:00.858Z,1.42
2023-02-19T18:06:27.667Z,3.10
2023-02-19T18:08:54.278Z,1.00
2023-02-19T18:11:21.878Z,2.38
2023-02-19T18:13:50.144Z,1.60
2023-02-19T18:16:17.259Z,2.13
2023-02-19T18:18:45.120Z,1.60
2023-02-19T18:21:13.625Z,1.08
2023-02-19T18:23:40.541Z,1.45
2023-02-19T18:26:10.151Z,1.30
2023-02-19T18:28:37.657Z,1.52
2023-02-19T18:31:04.467Z,2.03
2023-02-19T18:33:31.032Z,2.22
2023-02-19T18:35:57.568Z,1.50
2023-02-19T18:38:24.308Z,1.40
2023-02-19T18:40:50.955Z,1.70
2023-02-19T18:43:17.612Z,6.85
2023-02-19T18:45:44.164Z,1.52
2023-02-19T18:48:10.669Z,2.55
2023-02-19T18:50:37.285Z,1.02
2023-02-19T18:53:03.821Z,1.17
2023-02-19T18:55:30.356Z,2.22
2023-02-19T18:57:56.892Z,1.42
2023-02-19T19:00:26.431Z,1.20
2023-02-19T19:02:56.057Z,2.05
2023-02-19T19:05:22.978Z,1.25
2023-02-19T19:07:54.377Z,1.40
2023-02-19T19:10:24.011Z,1.40
2023-02-19T19:12:50.958Z,1.50
2023-02-19T19:15:18.561Z,1.30
2023-02-19T19:17:45.933Z,1.45
2023-02-19T19:20:14.937Z,1.38
2023-02-19T19:22:41.541Z,1.80
2023-02-19T19:25:08.479Z,1.63
2023-02-19T19:27:37.335Z,1.45
2023-02-19T19:30:05.004Z,1.27
2023-02-19T19:32:31.523Z,1.30
2023-02-19T19:35:01.871Z,1.40
2023-02-19T19:37:34.025Z,1.17
2023-02-19T19:40:00.531Z,0.90
2023-02-19T19:42:29.022Z,1.17
2023-02-19T19:44:55.468Z,0.90
2023-02-19T19:47:23.201Z,0.80
2023-02-19T19:49:49.736Z,0.80
2023-02-19T19:52:16.324Z,0.93
2023-02-19T19:54:43.662Z,1.00
2023-02-19T19:57:10.972Z,0.90
2023-02-19T19:59:40.629Z,0.85
2023-02-19T20:02:07.947Z,1.05
2023-02-19T20:04:35.036Z,0.90
2023-02-19T20:07:01.832Z,0.77
2023-02-19T20:09:30.429Z,0.80
2023-02-19T20:11:57.016Z,1.15
2023-02-19T20:14:27.270Z,1.27
2023-02-19T20:16:55.132Z,1.40
2023-02-19T20:19:22.243Z,1.00
2023-02-19T20:21:53.323Z,1.50
2023-02-19T20:24:25.310Z,1.75
2023-02-19T20:26:54.829Z,1.95
2023-02-19T20:29:21.381Z,1.40
2023-02-19T20:31:51.824Z,1.92
2023-02-19T20:34:18.577Z,1.98
2023-02-19T20:36:46.702Z,1.60
2023-02-19T20:39:14.158Z,1.15
2023-02-19T20:41:45.169Z,1.23
2023-02-19T20:44:11.716Z,1.10
2023-02-19T20:46:45.427Z,1.35
2023-02-19T20:49:12.886Z,1.20
2023-02-19T20:51:53.858Z,1.35
2023-02-19T20:54:24.031Z,1.33
2023-02-19T20:56:52.911Z,1.00
2023-02-19T20:59:21.814Z,1.00
2023-02-19T21:01:48.664Z,1.23
2023-02-19T21:04:18.212Z,1.17
2023-02-19T21:06:47.208Z,1.30
2023-02-19T21:09:13.874Z,1.08
2023-02-19T21:11:40.340Z,1.38
2023-02-19T21:14:06.950Z,1.00
2023-02-19T21:16:33.628Z,1.10
2023-02-19T21:19:00.197Z,1.10
2023-02-19T21:21:26.838Z,1.25
2023-02-19T21:23:54.358Z,1.55
2023-02-19T21:26:21.332Z,1.40
2023-02-19T21:28:53.150Z,1.00
2023-02-19T21:31:20.646Z,1.33
2023-02-19T21:33:49.615Z,0.95
2023-02-19T21:36:18.370Z,1.10
2023-02-19T21:38:44.861Z,1.40
2023-02-19T21:41:11.320Z,1.67
2023-02-19T21:43:37.795Z,2.10
2023-02-19T21:46:04.460Z,2.33
2023-02-19T21:48:31.010Z,1.35
2023-02-19T21:50:57.504Z,1.23
2023-02-19T21:53:24.032Z,1.42
2023-02-19T21:55:58.205Z,1.50
2023-02-19T21:58:26.219Z,1.08
2023-02-19T22:00:52.858Z,1.13
2023-02-19T22:03:19.362Z,1.10
2023-02-19T22:05:45.932Z,1.52
2023-02-19T22:08:12.490Z,1.40
2023-02-19T22:10:38.950Z,1.30
2023-02-19T22:13:05.529Z,1.02
2023-02-19T22:15:32.145Z,1.27
2023-02-19T22:17:58.622Z,1.20
2023-02-19T22:20:25.269Z,1.27
2023-02-19T22:22:51.860Z,1.10
2023-02-19T22:25:18.788Z,1.20
2023-02-19T22:27:45.413Z,1.20
2023-02-19T22:30:12.299Z,1.13
2023-02-19T22:32:40.466Z,1.30
2023-02-19T22:35:07.453Z,1.20
2023-02-19T22:37:34.207Z,1.20
2023-02-19T22:40:01.000Z,1.48
2023-02-19T22:42:27.530Z,1.30
2023-02-19T22:44:54.002Z,1.48
2023-02-19T22:47:20.565Z,1.20
2023-02-19T22:49:47.167Z,1.48
2023-02-19T22:52:14.246Z,1.45
2023-02-19T22:54:40.885Z,1.40
2023-02-19T22:57:07.484Z,1.65
2023-02-19T22:59:34.225Z,1.55
2023-02-19T23:02:01.014Z,1.40
2023-02-19T23:04:27.771Z,1.45
2023-02-19T23:06:54.520Z,1.50
2023-02-19T23:09:28.702Z,1.40
2023-02-19T23:12:08.461Z,1.60
2023-02-19T23:14:35.259Z,1.70
2023-02-19T23:17:01.891Z,1.65
2023-02-19T23:19:28.370Z,1.60
2023-02-19T23:21:55.429Z,1.70
2023-02-19T23:24:21.947Z,1.77
2023-02-19T23:26:50.987Z,1.77
2023-02-19T23:29:19.696Z,2.05
2023-02-19T23:31:47.442Z,2.00
2023-02-19T23:34:14.402Z,1.70
2023-02-19T23:36:47.849Z,1.73
2023-02-19T23:39:16.803Z,1.95
2023-02-19T23:41:52.347Z,1.83
2023-02-19T23:44:19.263Z,2.17
2023-02-19T23:46:46.206Z,1.90
2023-02-19T23:49:13.502Z,2.13
2023-02-19T23:51:40.119Z,2.00
2023-02-19T23:54:07.112Z,2.17
2023-02-19T23:56:34.037Z,2.10
2023-02-19T23:59:00.787Z,1.90
